GB-0343 weather

The Royal London Hospital Helipad
London, England, United Kingdom

Public forecast

Using degrees Celsius for public forecast. Weather courtesy of forecast.io.

Closest aviation weather report (METAR) to The Royal London Hospital Helipad

Closest report is London City Airport, 4.3 nm (8.0 km) E. Retrieved 2020/02/26 16:50 UTC (11 minutes ago):

EGLC 261650Z AUTO 29011KT 9999 NCD 08/M00 Q1007

Closest aviation forecast (TAF) to The Royal London Hospital Helipad

Forecast is more than 12 hours old.

Closest forecast is London City Airport, 4.3 nm (8.0 km) E. Retrieved 2018/10/15 21:30 UTC (1 year ago):

TAF EGLC 152119Z 1521/1621 CNL